sensor_id;sensor_type;location;lat;lon;timestamp;pressure;altitude;pressure_sealevel;temperature;humidity
6393;BME280;3229;42.674;23.282;2023-08-20T00:00:43;94882.06;;;23.24;63.26
6393;BME280;3229;42.674;23.282;2023-08-20T00:03:11;94870.66;;;23.18;63.38
6393;BME280;3229;42.674;23.282;2023-08-20T00:05:39;94878.66;;;23.23;63.24
6393;BME280;3229;42.674;23.282;2023-08-20T00:08:06;94886.50;;;23.23;63.36
6393;BME280;3229;42.674;23.282;2023-08-20T00:10:35;94883.88;;;23.23;63.42
6393;BME280;3229;42.674;23.282;2023-08-20T00:13:01;94878.66;;;23.23;63.16
6393;BME280;3229;42.674;23.282;2023-08-20T00:15:29;94877.50;;;23.19;63.35
6393;BME280;3229;42.674;23.282;2023-08-20T00:17:56;94871.03;;;23.22;63.32
6393;BME280;3229;42.674;23.282;2023-08-20T00:20:25;94857.06;;;23.10;63.49
6393;BME280;3229;42.674;23.282;2023-08-20T00:22:52;94873.63;;;23.22;63.15
6393;BME280;3229;42.674;23.282;2023-08-20T00:25:19;94879.47;;;23.24;63.13
6393;BME280;3229;42.674;23.282;2023-08-20T00:27:47;94877.44;;;23.26;62.80
6393;BME280;3229;42.674;23.282;2023-08-20T00:30:14;94883.63;;;23.32;62.80
6393;BME280;3229;42.674;23.282;2023-08-20T00:32:41;94883.81;;;23.30;62.75
6393;BME280;3229;42.674;23.282;2023-08-20T00:35:07;94882.00;;;23.31;62.56
6393;BME280;3229;42.674;23.282;2023-08-20T00:37:34;94874.41;;;23.29;62.79
6393;BME280;3229;42.674;23.282;2023-08-20T00:40:02;94872.59;;;23.29;62.56
6393;BME280;3229;42.674;23.282;2023-08-20T00:42:30;94882.22;;;23.29;62.45
6393;BME280;3229;42.674;23.282;2023-08-20T00:44:58;94876.41;;;23.27;62.71
6393;BME280;3229;42.674;23.282;2023-08-20T00:47:25;94878.81;;;23.28;62.59
6393;BME280;3229;42.674;23.282;2023-08-20T00:49:52;94880.63;;;23.28;62.44
6393;BME280;3229;42.674;23.282;2023-08-20T00:52:20;94885.41;;;23.31;62.52
6393;BME280;3229;42.674;23.282;2023-08-20T00:54:48;94871.78;;;23.29;62.51
6393;BME280;3229;42.674;23.282;2023-08-20T00:57:15;94877.59;;;23.31;62.58
6393;BME280;3229;42.674;23.282;2023-08-20T00:59:44;94872.75;;;23.35;62.21
6393;BME280;3229;42.674;23.282;2023-08-20T01:02:15;94869.72;;;23.38;61.97
6393;BME280;3229;42.674;23.282;2023-08-20T01:04:42;94873.34;;;23.37;62.30
6393;BME280;3229;42.674;23.282;2023-08-20T01:07:16;94873.34;;;23.37;62.14
6393;BME280;3229;42.674;23.282;2023-08-20T01:09:50;94866.72;;;23.34;62.07
6393;BME280;3229;42.674;23.282;2023-08-20T01:12:22;94872.09;;;23.39;62.39
6393;BME280;3229;42.674;23.282;2023-08-20T01:14:49;94875.16;;;23.36;62.55
6393;BME280;3229;42.674;23.282;2023-08-20T01:17:17;94874.56;;;23.34;62.42
6393;BME280;3229;42.674;23.282;2023-08-20T01:19:44;94880.41;;;23.29;62.98
6393;BME280;3229;42.674;23.282;2023-08-20T01:22:37;94866.78;;;23.27;62.92
6393;BME280;3229;42.674;23.282;2023-08-20T01:25:12;94866.44;;;23.17;63.44
6393;BME280;3229;42.674;23.282;2023-08-20T01:27:51;94849.03;;;23.11;63.15
6393;BME280;3229;42.674;23.282;2023-08-20T01:30:21;94870.03;;;23.23;63.03
6393;BME280;3229;42.674;23.282;2023-08-20T01:32:49;94861.84;;;23.19;63.27
6393;BME280;3229;42.674;23.282;2023-08-20T01:35:18;94866.88;;;23.14;63.71
6393;BME280;3229;42.674;23.282;2023-08-20T01:37:45;94866.06;;;23.14;63.78
6393;BME280;3229;42.674;23.282;2023-08-20T01:40:12;94859.84;;;23.15;63.70
6393;BME280;3229;42.674;23.282;2023-08-20T01:42:39;94854.25;;;23.11;63.83
6393;BME280;3229;42.674;23.282;2023-08-20T01:45:07;94856.06;;;23.11;63.75
6393;BME280;3229;42.674;23.282;2023-08-20T01:47:35;94871.72;;;23.11;63.81
6393;BME280;3229;42.674;23.282;2023-08-20T01:50:03;94818.06;;;22.83;63.88
6393;BME280;3229;42.674;23.282;2023-08-20T01:52:30;94849.72;;;23.00;64.39
6393;BME280;3229;42.674;23.282;2023-08-20T01:54:58;94845.88;;;23.02;64.43
6393;BME280;3229;42.674;23.282;2023-08-20T01:57:24;94847.91;;;23.00;64.26
6393;BME280;3229;42.674;23.282;2023-08-20T01:59:51;94849.94;;;22.98;64.56
6393;BME280;3229;42.674;23.282;2023-08-20T02:02:18;94844.09;;;22.96;64.38
6393;BME280;3229;42.674;23.282;2023-08-20T02:04:46;94842.50;;;22.95;64.67
6393;BME280;3229;42.674;23.282;2023-08-20T02:07:13;94849.75;;;22.93;64.71
6393;BME280;3229;42.674;23.282;2023-08-20T02:09:40;94841.94;;;22.93;64.98
6393;BME280;3229;42.674;23.282;2023-08-20T02:12:07;94845.53;;;22.92;64.85
6393;BME280;3229;42.674;23.282;2023-08-20T02:14:34;94847.16;;;22.93;64.68
6393;BME280;3229;42.674;23.282;2023-08-20T02:17:01;94837.72;;;22.92;64.68
6393;BME280;3229;42.674;23.282;2023-08-20T02:19:28;94835.09;;;22.92;64.73
6393;BME280;3229;42.674;23.282;2023-08-20T02:21:56;94836.50;;;22.88;64.84
6393;BME280;3229;42.674;23.282;2023-08-20T02:24:23;94854.19;;;22.93;65.00
6393;BME280;3229;42.674;23.282;2023-08-20T02:26:50;94845.34;;;22.94;64.98
6393;BME280;3229;42.674;23.282;2023-08-20T02:29:16;94857.59;;;22.93;65.13
6393;BME280;3229;42.674;23.282;2023-08-20T02:31:43;94850.19;;;22.90;65.39
6393;BME280;3229;42.674;23.282;2023-08-20T02:34:10;94850.56;;;22.87;65.51
6393;BME280;3229;42.674;23.282;2023-08-20T02:36:37;94849.19;;;22.85;65.79
6393;BME280;3229;42.674;23.282;2023-08-20T02:39:05;94848.00;;;22.81;65.88
6393;BME280;3229;42.674;23.282;2023-08-20T02:41:33;94848.63;;;22.76;66.27
6393;BME280;3229;42.674;23.282;2023-08-20T02:44:00;94847.22;;;22.73;66.20
6393;BME280;3229;42.674;23.282;2023-08-20T02:46:26;94853.88;;;22.69;66.74
6393;BME280;3229;42.674;23.282;2023-08-20T02:48:53;94856.69;;;22.68;66.95
6393;BME280;3229;42.674;23.282;2023-08-20T02:51:20;94858.69;;;22.66;67.34
6393;BME280;3229;42.674;23.282;2023-08-20T02:53:47;94862.53;;;22.63;67.55
6393;BME280;3229;42.674;23.282;2023-08-20T02:56:16;94863.56;;;22.56;67.84
6393;BME280;3229;42.674;23.282;2023-08-20T02:58:42;94862.97;;;22.53;68.04
6393;BME280;3229;42.674;23.282;2023-08-20T03:01:18;94831.00;;;22.26;68.56
6393;BME280;3229;42.674;23.282;2023-08-20T03:03:44;94868.22;;;22.40;68.83
6393;BME280;3229;42.674;23.282;2023-08-20T03:06:11;94863.22;;;22.39;69.04
6393;BME280;3229;42.674;23.282;2023-08-20T03:08:38;94873.47;;;22.34;69.31
6393;BME280;3229;42.674;23.282;2023-08-20T03:11:05;94844.88;;;22.14;69.37
6393;BME280;3229;42.674;23.282;2023-08-20T03:13:34;94870.31;;;22.25;69.79
6393;BME280;3229;42.674;23.282;2023-08-20T03:16:00;94870.13;;;22.20;70.06
6393;BME280;3229;42.674;23.282;2023-08-20T03:18:28;94877.53;;;22.16;70.24
6393;BME280;3229;42.674;23.282;2023-08-20T03:20:55;94871.94;;;22.13;70.65
6393;BME280;3229;42.674;23.282;2023-08-20T03:23:22;94870.31;;;22.12;70.81
6393;BME280;3229;42.674;23.282;2023-08-20T03:25:49;94873.94;;;22.11;70.79
6393;BME280;3229;42.674;23.282;2023-08-20T03:28:17;94868.91;;;22.09;71.07
6393;BME280;3229;42.674;23.282;2023-08-20T03:30:46;94862.31;;;22.07;71.85
6393;BME280;3229;42.674;23.282;2023-08-20T03:33:13;94856.13;;;21.94;71.72
6393;BME280;3229;42.674;23.282;2023-08-20T03:35:40;94867.53;;;21.93;72.15
6393;BME280;3229;42.674;23.282;2023-08-20T03:38:07;94871.16;;;21.86;72.42
6393;BME280;3229;42.674;23.282;2023-08-20T03:40:33;94860.75;;;21.79;72.63
6393;BME280;3229;42.674;23.282;2023-08-20T03:43:00;94859.56;;;21.75;72.92
6393;BME280;3229;42.674;23.282;2023-08-20T03:45:28;94843.78;;;21.63;73.09
6393;BME280;3229;42.674;23.282;2023-08-20T03:47:57;94858.78;;;21.68;73.08
6393;BME280;3229;42.674;23.282;2023-08-20T03:50:24;94829.34;;;21.54;73.05
6393;BME280;3229;42.674;23.282;2023-08-20T03:52:51;94846.38;;;21.63;73.08
6393;BME280;3229;42.674;23.282;2023-08-20T03:55:17;94846.78;;;21.60;73.26
6393;BME280;3229;42.674;23.282;2023-08-20T03:57:44;94851.97;;;21.60;73.32
6393;BME280;3229;42.674;23.282;2023-08-20T04:00:12;94844.75;;;21.62;73.30
6393;BME280;3229;42.674;23.282;2023-08-20T04:02:39;94858.38;;;21.64;73.33
6393;BME280;3229;42.674;23.282;2023-08-20T04:05:07;94853.56;;;21.68;73.17
6393;BME280;3229;42.674;23.282;2023-08-20T04:07:34;94850.53;;;21.71;72.95
6393;BME280;3229;42.674;23.282;2023-08-20T04:10:01;94853.75;;;21.73;72.96
6393;BME280;3229;42.674;23.282;2023-08-20T04:12:28;94835.13;;;21.69;72.74
6393;BME280;3229;42.674;23.282;2023-08-20T04:14:55;94847.75;;;21.72;72.84
6393;BME280;3229;42.674;23.282;2023-08-20T04:17:22;94849.16;;;21.75;73.00
6393;BME280;3229;42.674;23.282;2023-08-20T04:19:49;94849.75;;;21.77;73.15
6393;BME280;3229;42.674;23.282;2023-08-20T04:22:17;94845.75;;;21.81;73.34
6393;BME280;3229;42.674;23.282;2023-08-20T04:24:44;94849.72;;;21.84;73.21
6393;BME280;3229;42.674;23.282;2023-08-20T04:27:10;94856.31;;;21.93;73.14
6393;BME280;3229;42.674;23.282;2023-08-20T04:29:37;94847.69;;;21.99;73.07
6393;BME280;3229;42.674;23.282;2023-08-20T04:32:04;94852.69;;;22.00;72.84
6393;BME280;3229;42.674;23.282;2023-08-20T04:34:32;94851.69;;;22.08;72.53
6393;BME280;3229;42.674;23.282;2023-08-20T04:36:58;94854.28;;;22.15;72.43
6393;BME280;3229;42.674;23.282;2023-08-20T04:39:26;94846.28;;;22.16;72.21
6393;BME280;3229;42.674;23.282;2023-08-20T04:41:53;94864.03;;;22.39;71.52
6393;BME280;3229;42.674;23.282;2023-08-20T04:44:22;94862.16;;;22.53;71.38
6393;BME280;3229;42.674;23.282;2023-08-20T04:46:49;94860.66;;;22.70;70.67
6393;BME280;3229;42.674;23.282;2023-08-20T04:49:16;94867.22;;;22.93;69.85
6393;BME280;3229;42.674;23.282;2023-08-20T04:51:43;94859.25;;;23.13;68.84
6393;BME280;3229;42.674;23.282;2023-08-20T04:54:09;94865.38;;;23.32;68.83
6393;BME280;3229;42.674;23.282;2023-08-20T04:56:37;94865.50;;;23.62;68.08
6393;BME280;3229;42.674;23.282;2023-08-20T04:59:04;94860.22;;;23.93;66.54
6393;BME280;3229;42.674;23.282;2023-08-20T05:01:31;94866.75;;;24.21;65.29
6393;BME280;3229;42.674;23.282;2023-08-20T05:03:58;94868.94;;;24.24;64.65
6393;BME280;3229;42.674;23.282;2023-08-20T05:06:24;94865.09;;;24.26;64.55
6393;BME280;3229;42.674;23.282;2023-08-20T05:08:51;94869.41;;;24.39;63.59
6393;BME280;3229;42.674;23.282;2023-08-20T05:11:18;94874.13;;;24.49;62.70
6393;BME280;3229;42.674;23.282;2023-08-20T05:13:48;94867.28;;;24.48;62.63
6393;BME280;3229;42.674;23.282;2023-08-20T05:16:15;94873.38;;;24.60;62.40
6393;BME280;3229;42.674;23.282;2023-08-20T05:18:42;94867.09;;;24.80;61.63
6393;BME280;3229;42.674;23.282;2023-08-20T05:21:09;94875.34;;;24.95;61.37
6393;BME280;3229;42.674;23.282;2023-08-20T05:23:38;94875.44;;;25.18;60.64
6393;BME280;3229;42.674;23.282;2023-08-20T05:26:05;94880.03;;;25.35;60.21
6393;BME280;3229;42.674;23.282;2023-08-20T05:28:32;94888.25;;;25.50;59.63
6393;BME280;3229;42.674;23.282;2023-08-20T05:31:00;94880.03;;;25.46;59.77
6393;BME280;3229;42.674;23.282;2023-08-20T05:33:27;94882.66;;;25.46;59.46
6393;BME280;3229;42.674;23.282;2023-08-20T05:35:54;94886.13;;;25.70;58.89
6393;BME280;3229;42.674;23.282;2023-08-20T05:38:21;94877.13;;;25.90;58.28
6393;BME280;3229;42.674;23.282;2023-08-20T05:40:47;94886.25;;;26.22;57.69
6393;BME280;3229;42.674;23.282;2023-08-20T05:43:14;94860.81;;;26.35;57.00
6393;BME280;3229;42.674;23.282;2023-08-20T05:45:41;94884.72;;;26.90;56.01
6393;BME280;3229;42.674;23.282;2023-08-20T05:48:09;94891.59;;;27.37;54.48
6393;BME280;3229;42.674;23.282;2023-08-20T05:50:36;94883.31;;;27.62;53.67
6393;BME280;3229;42.674;23.282;2023-08-20T05:53:03;94885.31;;;27.88;52.84
6393;BME280;3229;42.674;23.282;2023-08-20T05:55:30;94887.13;;;28.05;53.04
6393;BME280;3229;42.674;23.282;2023-08-20T05:57:57;94892.00;;;28.35;52.57
6393;BME280;3229;42.674;23.282;2023-08-20T06:00:24;94888.50;;;28.68;51.53
6393;BME280;3229;42.674;23.282;2023-08-20T06:02:50;94887.88;;;29.05;50.28
6393;BME280;3229;42.674;23.282;2023-08-20T06:05:18;94883.41;;;29.32;49.77
6393;BME280;3229;42.674;23.282;2023-08-20T06:07:45;94893.16;;;29.64;48.94
6393;BME280;3229;42.674;23.282;2023-08-20T06:10:12;94891.13;;;29.71;48.81
6393;BME280;3229;42.674;23.282;2023-08-20T06:12:39;94889.41;;;29.92;48.60
6393;BME280;3229;42.674;23.282;2023-08-20T06:15:06;94888.75;;;30.12;48.16
6393;BME280;3229;42.674;23.282;2023-08-20T06:17:33;94882.56;;;30.38;47.15
6393;BME280;3229;42.674;23.282;2023-08-20T06:19:59;94865.19;;;30.53;46.71
6393;BME280;3229;42.674;23.282;2023-08-20T06:22:28;94892.84;;;31.03;45.70
6393;BME280;3229;42.674;23.282;2023-08-20T06:24:54;94897.94;;;31.30;44.68
6393;BME280;3229;42.674;23.282;2023-08-20T06:27:21;94900.09;;;31.53;44.04
6393;BME280;3229;42.674;23.282;2023-08-20T06:29:48;94905.91;;;31.81;43.17
6393;BME280;3229;42.674;23.282;2023-08-20T06:32:15;94886.09;;;31.88;42.86
6393;BME280;3229;42.674;23.282;2023-08-20T06:34:41;94897.13;;;32.21;42.50
6393;BME280;3229;42.674;23.282;2023-08-20T06:37:08;94898.19;;;32.30;41.72
6393;BME280;3229;42.674;23.282;2023-08-20T06:39:36;94901.63;;;32.31;41.91
6393;BME280;3229;42.674;23.282;2023-08-20T06:42:03;94895.78;;;32.49;41.87
6393;BME280;3229;42.674;23.282;2023-08-20T06:44:30;94895.41;;;32.71;41.77
6393;BME280;3229;42.674;23.282;2023-08-20T06:46:57;94889.03;;;32.72;41.40
6393;BME280;3229;42.674;23.282;2023-08-20T06:49:23;94896.66;;;32.89;40.99
6393;BME280;3229;42.674;23.282;2023-08-20T06:51:50;94899.31;;;32.84;41.05
6393;BME280;3229;42.674;23.282;2023-08-20T06:54:17;94901.44;;;32.87;40.98
6393;BME280;3229;42.674;23.282;2023-08-20T06:56:45;94902.03;;;32.74;41.46
6393;BME280;3229;42.674;23.282;2023-08-20T06:59:12;94907.00;;;32.85;41.40
6393;BME280;3229;42.674;23.282;2023-08-20T07:01:38;94902.16;;;33.08;40.62
6393;BME280;3229;42.674;23.282;2023-08-20T07:04:05;94888.28;;;33.21;40.27
6393;BME280;3229;42.674;23.282;2023-08-20T07:06:32;94903.78;;;33.48;40.15
6393;BME280;3229;42.674;23.282;2023-08-20T07:08:59;94903.63;;;33.68;39.70
6393;BME280;3229;42.674;23.282;2023-08-20T07:11:26;94906.22;;;33.74;39.59
6393;BME280;3229;42.674;23.282;2023-08-20T07:13:54;94900.63;;;33.75;39.01
6393;BME280;3229;42.674;23.282;2023-08-20T07:16:21;94896.44;;;33.69;38.46
6393;BME280;3229;42.674;23.282;2023-08-20T07:18:48;94908.34;;;33.71;38.52
6393;BME280;3229;42.674;23.282;2023-08-20T07:21:14;94896.13;;;33.76;38.05
6393;BME280;3229;42.674;23.282;2023-08-20T07:23:41;94903.56;;;33.74;38.03
6393;BME280;3229;42.674;23.282;2023-08-20T07:26:09;94889.22;;;33.75;37.89
6393;BME280;3229;42.674;23.282;2023-08-20T07:28:37;94913.50;;;33.92;37.53
6393;BME280;3229;42.674;23.282;2023-08-20T07:31:23;94909.47;;;34.00;37.13
6393;BME280;3229;42.674;23.282;2023-08-20T07:33:50;94905.19;;;34.04;37.34
6393;BME280;3229;42.674;23.282;2023-08-20T07:36:18;94901.59;;;34.18;37.17
6393;BME280;3229;42.674;23.282;2023-08-20T07:38:47;94898.44;;;34.16;36.79
6393;BME280;3229;42.674;23.282;2023-08-20T07:41:14;94899.97;;;33.88;36.95
6393;BME280;3229;42.674;23.282;2023-08-20T07:43:41;94893.81;;;33.25;37.87
6393;BME280;3229;42.674;23.282;2023-08-20T07:46:08;94907.97;;;33.10;38.72
6393;BME280;3229;42.674;23.282;2023-08-20T07:48:37;94911.47;;;32.90;38.91
6393;BME280;3229;42.674;23.282;2023-08-20T07:51:04;94902.28;;;32.72;38.97
6393;BME280;3229;42.674;23.282;2023-08-20T07:53:31;94908.97;;;32.59;39.70
6393;BME280;3229;42.674;23.282;2023-08-20T07:55:58;94910.34;;;32.31;39.73
6393;BME280;3229;42.674;23.282;2023-08-20T07:58:25;94907.19;;;32.24;39.66
6393;BME280;3229;42.674;23.282;2023-08-20T08:00:52;94910.34;;;32.36;39.81
6393;BME280;3229;42.674;23.282;2023-08-20T08:03:19;94907.97;;;32.45;39.25
6393;BME280;3229;42.674;23.282;2023-08-20T08:05:50;94880.97;;;32.38;39.48
6393;BME280;3229;42.674;23.282;2023-08-20T08:08:17;94913.13;;;32.76;38.97
6393;BME280;3229;42.674;23.282;2023-08-20T08:10:45;94900.44;;;32.78;38.74
6393;BME280;3229;42.674;23.282;2023-08-20T08:13:12;94897.72;;;32.88;38.71
6393;BME280;3229;42.674;23.282;2023-08-20T08:15:39;94904.34;;;32.90;37.53
6393;BME280;3229;42.674;23.282;2023-08-20T08:18:06;94905.94;;;32.91;37.79
6393;BME280;3229;42.674;23.282;2023-08-20T08:20:34;94891.63;;;32.87;37.72
6393;BME280;3229;42.674;23.282;2023-08-20T08:23:02;94904.03;;;33.02;37.51
6393;BME280;3229;42.674;23.282;2023-08-20T08:25:29;94906.31;;;33.19;37.23
6393;BME280;3229;42.674;23.282;2023-08-20T08:27:56;94911.78;;;33.33;36.63
6393;BME280;3229;42.674;23.282;2023-08-20T08:30:23;94896.13;;;33.36;36.35
6393;BME280;3229;42.674;23.282;2023-08-20T08:32:50;94907.47;;;33.42;36.39
6393;BME280;3229;42.674;23.282;2023-08-20T08:35:17;94897.44;;;33.44;36.57
6393;BME280;3229;42.674;23.282;2023-08-20T08:37:44;94907.16;;;33.54;36.28
6393;BME280;3229;42.674;23.282;2023-08-20T08:40:12;94903.19;;;33.56;36.51
6393;BME280;3229;42.674;23.282;2023-08-20T08:42:40;94898.91;;;33.60;36.20
6393;BME280;3229;42.674;23.282;2023-08-20T08:45:07;94904.47;;;33.64;35.54
6393;BME280;3229;42.674;23.282;2023-08-20T08:47:35;94902.59;;;33.59;35.71
6393;BME280;3229;42.674;23.282;2023-08-20T08:50:04;94902.84;;;33.63;35.77
6393;BME280;3229;42.674;23.282;2023-08-20T08:52:31;94903.84;;;33.72;35.48
6393;BME280;3229;42.674;23.282;2023-08-20T08:54:58;94903.34;;;33.70;34.02
6393;BME280;3229;42.674;23.282;2023-08-20T08:57:27;94915.06;;;33.64;33.44
6393;BME280;3229;42.674;23.282;2023-08-20T08:59:53;94902.41;;;33.51;33.89
6393;BME280;3229;42.674;23.282;2023-08-20T09:02:20;94895.53;;;33.50;34.31
6393;BME280;3229;42.674;23.282;2023-08-20T09:04:48;94905.59;;;33.53;34.46
6393;BME280;3229;42.674;23.282;2023-08-20T09:07:15;94902.09;;;33.57;34.71
6393;BME280;3229;42.674;23.282;2023-08-20T09:09:43;94909.75;;;33.64;34.60
6393;BME280;3229;42.674;23.282;2023-08-20T09:12:13;94906.88;;;33.60;33.90
6393;BME280;3229;42.674;23.282;2023-08-20T09:14:46;94899.81;;;33.40;33.59
6393;BME280;3229;42.674;23.282;2023-08-20T09:17:14;94903.13;;;33.22;33.93
6393;BME280;3229;42.674;23.282;2023-08-20T09:19:42;94899.19;;;33.14;34.15
6393;BME280;3229;42.674;23.282;2023-08-20T09:22:11;94898.41;;;33.14;33.92
6393;BME280;3229;42.674;23.282;2023-08-20T09:24:40;94895.53;;;33.05;34.53
6393;BME280;3229;42.674;23.282;2023-08-20T09:27:08;94895.75;;;33.14;34.88
6393;BME280;3229;42.674;23.282;2023-08-20T09:29:45;94904.78;;;33.13;34.69
6393;BME280;3229;42.674;23.282;2023-08-20T09:32:15;94898.94;;;33.11;34.16
6393;BME280;3229;42.674;23.282;2023-08-20T09:34:42;94895.25;;;33.12;34.42
6393;BME280;3229;42.674;23.282;2023-08-20T09:37:09;94910.38;;;33.06;34.55
6393;BME280;3229;42.674;23.282;2023-08-20T09:39:36;94891.06;;;33.01;34.46
6393;BME280;3229;42.674;23.282;2023-08-20T09:42:04;94894.00;;;32.89;34.07
6393;BME280;3229;42.674;23.282;2023-08-20T09:44:33;94888.75;;;32.79;34.05
6393;BME280;3229;42.674;23.282;2023-08-20T09:47:05;94890.44;;;32.64;33.97
6393;BME280;3229;42.674;23.282;2023-08-20T09:49:36;94882.75;;;32.58;34.11
6393;BME280;3229;42.674;23.282;2023-08-20T09:52:05;94886.50;;;32.52;34.31
6393;BME280;3229;42.674;23.282;2023-08-20T09:54:43;94862.19;;;32.34;34.23
6393;BME280;3229;42.674;23.282;2023-08-20T09:57:18;94889.44;;;32.40;34.74
6393;BME280;3229;42.674;23.282;2023-08-20T09:59:47;94864.31;;;32.27;34.73
6393;BME280;3229;42.674;23.282;2023-08-20T10:02:17;94882.28;;;32.45;34.60
6393;BME280;3229;42.674;23.282;2023-08-20T10:04:43;94879.13;;;32.43;34.99
6393;BME280;3229;42.674;23.282;2023-08-20T10:07:11;94882.03;;;32.32;35.06
6393;BME280;3229;42.674;23.282;2023-08-20T10:09:39;94892.63;;;32.27;35.35
6393;BME280;3229;42.674;23.282;2023-08-20T10:12:07;94886.25;;;32.33;35.01
6393;BME280;3229;42.674;23.282;2023-08-20T10:14:34;94886.00;;;32.34;34.60
6393;BME280;3229;42.674;23.282;2023-08-20T10:17:07;94874.09;;;32.32;34.34
6393;BME280;3229;42.674;23.282;2023-08-20T10:19:36;94884.13;;;32.30;34.68
6393;BME280;3229;42.674;23.282;2023-08-20T10:22:04;94883.34;;;32.29;34.46
6393;BME280;3229;42.674;23.282;2023-08-20T10:24:40;94883.13;;;32.15;34.73
6393;BME280;3229;42.674;23.282;2023-08-20T10:27:09;94884.22;;;32.09;34.88
6393;BME280;3229;42.674;23.282;2023-08-20T10:29:40;94871.75;;;32.15;34.69
6393;BME280;3229;42.674;23.282;2023-08-20T10:32:08;94883.63;;;32.28;34.36
6393;BME280;3229;42.674;23.282;2023-08-20T10:34:39;94885.53;;;32.17;34.60
6393;BME280;3229;42.674;23.282;2023-08-20T10:37:09;94879.13;;;32.23;34.07
6393;BME280;3229;42.674;23.282;2023-08-20T10:39:36;94873.34;;;32.11;34.23
6393;BME280;3229;42.674;23.282;2023-08-20T10:42:21;94868.59;;;32.03;34.65
6393;BME280;3229;42.674;23.282;2023-08-20T10:44:57;94865.19;;;31.97;34.93
6393;BME280;3229;42.674;23.282;2023-08-20T10:47:24;94859.09;;;32.02;35.24
6393;BME280;3229;42.674;23.282;2023-08-20T10:49:53;94868.59;;;32.03;34.47
6393;BME280;3229;42.674;23.282;2023-08-20T10:52:22;94864.13;;;31.88;34.53
6393;BME280;3229;42.674;23.282;2023-08-20T10:54:50;94855.38;;;31.97;34.33
6393;BME280;3229;42.674;23.282;2023-08-20T10:57:18;94856.16;;;32.03;34.44
6393;BME280;3229;42.674;23.282;2023-08-20T10:59:56;94852.22;;;31.95;35.09
6393;BME280;3229;42.674;23.282;2023-08-20T11:02:24;94846.38;;;31.98;35.46
6393;BME280;3229;42.674;23.282;2023-08-20T11:04:53;94852.22;;;31.95;35.28
6393;BME280;3229;42.674;23.282;2023-08-20T11:07:20;94854.84;;;32.01;35.62
6393;BME280;3229;42.674;23.282;2023-08-20T11:09:50;94839.53;;;31.92;35.33
6393;BME280;3229;42.674;23.282;2023-08-20T11:12:19;94843.19;;;32.02;34.84
6393;BME280;3229;42.674;23.282;2023-08-20T11:14:46;94851.66;;;32.04;35.02
6393;BME280;3229;42.674;23.282;2023-08-20T11:17:13;94846.38;;;32.09;34.79
6393;BME280;3229;42.674;23.282;2023-08-20T11:19:40;94841.06;;;32.09;34.45
6393;BME280;3229;42.674;23.282;2023-08-20T11:22:09;94836.00;;;32.12;34.17
6393;BME280;3229;42.674;23.282;2023-08-20T11:24:36;94840.00;;;32.10;33.99
6393;BME280;3229;42.674;23.282;2023-08-20T11:27:04;94843.97;;;32.07;34.78
6393;BME280;3229;42.674;23.282;2023-08-20T11:29:31;94836.06;;;31.97;34.78
6393;BME280;3229;42.674;23.282;2023-08-20T11:31:58;94826.53;;;32.01;34.59
6393;BME280;3229;42.674;23.282;2023-08-20T11:34:28;94836.56;;;32.09;34.87
6393;BME280;3229;42.674;23.282;2023-08-20T11:36:55;94842.91;;;32.18;34.51
6393;BME280;3229;42.674;23.282;2023-08-20T11:39:24;94776.56;;;31.79;34.80
6393;BME280;3229;42.674;23.282;2023-08-20T11:41:51;94837.31;;;32.20;34.59
6393;BME280;3229;42.674;23.282;2023-08-20T11:44:22;94822.00;;;32.17;34.39
6393;BME280;3229;42.674;23.282;2023-08-20T11:46:48;94817.72;;;32.26;34.90
6393;BME280;3229;42.674;23.282;2023-08-20T11:49:15;94807.41;;;32.25;34.90
6393;BME280;3229;42.674;23.282;2023-08-20T11:51:44;94826.19;;;32.28;34.80
6393;BME280;3229;42.674;23.282;2023-08-20T11:54:13;94823.78;;;32.32;35.06
6393;BME280;3229;42.674;23.282;2023-08-20T11:56:45;94829.34;;;32.25;34.18
6393;BME280;3229;42.674;23.282;2023-08-20T11:59:12;94814.81;;;32.28;34.72
6393;BME280;3229;42.674;23.282;2023-08-20T12:01:39;94814.81;;;32.28;34.47
6393;BME280;3229;42.674;23.282;2023-08-20T12:04:07;94819.34;;;32.22;34.64
6393;BME280;3229;42.674;23.282;2023-08-20T12:06:35;94818.53;;;32.21;34.88
6393;BME280;3229;42.674;23.282;2023-08-20T12:09:18;94815.34;;;32.25;34.90
6393;BME280;3229;42.674;23.282;2023-08-20T12:11:49;94816.13;;;32.30;35.02
6393;BME280;3229;42.674;23.282;2023-08-20T12:14:16;94805.50;;;32.35;34.81
6393;BME280;3229;42.674;23.282;2023-08-20T12:16:43;94810.81;;;32.40;34.39
6393;BME280;3229;42.674;23.282;2023-08-20T12:19:10;94786.97;;;32.35;34.25
6393;BME280;3229;42.674;23.282;2023-08-20T12:21:37;94805.78;;;32.39;34.50
6393;BME280;3229;42.674;23.282;2023-08-20T12:24:05;94799.44;;;32.35;34.83
6393;BME280;3229;42.674;23.282;2023-08-20T12:26:32;94803.16;;;32.39;34.91
6393;BME280;3229;42.674;23.282;2023-08-20T12:29:00;94794.38;;;32.33;35.13
6393;BME280;3229;42.674;23.282;2023-08-20T12:31:27;94797.31;;;32.32;35.38
6393;BME280;3229;42.674;23.282;2023-08-20T12:33:54;94794.13;;;32.40;35.55
6393;BME280;3229;42.674;23.282;2023-08-20T12:36:21;94794.38;;;32.43;35.13
6393;BME280;3229;42.674;23.282;2023-08-20T12:38:48;94797.03;;;32.43;35.56
6393;BME280;3229;42.674;23.282;2023-08-20T12:41:14;94787.75;;;32.46;35.56
6393;BME280;3229;42.674;23.282;2023-08-20T12:43:42;94766.91;;;32.24;36.25
6393;BME280;3229;42.674;23.282;2023-08-20T12:46:10;94788.06;;;32.39;36.16
6393;BME280;3229;42.674;23.282;2023-08-20T12:48:37;94795.97;;;32.44;36.18
6393;BME280;3229;42.674;23.282;2023-08-20T12:51:04;94789.31;;;32.47;35.99
6393;BME280;3229;42.674;23.282;2023-08-20T12:53:31;94789.31;;;32.47;35.79
6393;BME280;3229;42.674;23.282;2023-08-20T12:55:58;94780.34;;;32.43;35.95
6393;BME280;3229;42.674;23.282;2023-08-20T12:58:25;94783.78;;;32.38;35.96
6393;BME280;3229;42.674;23.282;2023-08-20T13:00:52;94779.84;;;32.31;36.12
6393;BME280;3229;42.674;23.282;2023-08-20T13:03:21;94789.91;;;32.29;36.04
6393;BME280;3229;42.674;23.282;2023-08-20T13:05:48;94785.19;;;32.26;36.14
6393;BME280;3229;42.674;23.282;2023-08-20T13:08:16;94760.34;;;32.11;36.51
6393;BME280;3229;42.674;23.282;2023-08-20T13:10:46;94787.00;;;32.25;36.45
6393;BME280;3229;42.674;23.282;2023-08-20T13:13:18;94781.22;;;32.18;36.42